sensor_id;sensor_type;location;lat;lon;timestamp;P1;durP1;ratioP1;P2;durP2;ratioP2
26536;SDS011;14204;51.262;5.488;2022-10-31T00:02:05;20.83;;;10.85;;
26536;SDS011;14204;51.262;5.488;2022-10-31T00:04:30;21.98;;;11.77;;
26536;SDS011;14204;51.262;5.488;2022-10-31T00:06:56;23.02;;;12.07;;
26536;SDS011;14204;51.262;5.488;2022-10-31T00:09:22;25.38;;;12.15;;
26536;SDS011;14204;51.262;5.488;2022-10-31T00:11:47;25.38;;;11.63;;
26536;SDS011;14204;51.262;5.488;2022-10-31T00:14:13;25.27;;;12.00;;
26536;SDS011;14204;51.262;5.488;2022-10-31T00:16:39;29.27;;;12.35;;
26536;SDS011;14204;51.262;5.488;2022-10-31T00:19:06;26.33;;;13.00;;
26536;SDS011;14204;51.262;5.488;2022-10-31T00:21:33;28.25;;;13.10;;
26536;SDS011;14204;51.262;5.488;2022-10-31T00:23:59;20.63;;;12.13;;
26536;SDS011;14204;51.262;5.488;2022-10-31T00:26:29;20.83;;;11.60;;
26536;SDS011;14204;51.262;5.488;2022-10-31T00:28:56;22.55;;;12.30;;
26536;SDS011;14204;51.262;5.488;2022-10-31T00:31:22;22.25;;;12.07;;
26536;SDS011;14204;51.262;5.488;2022-10-31T00:33:48;22.20;;;13.73;;
26536;SDS011;14204;51.262;5.488;2022-10-31T00:36:15;25.20;;;12.77;;
26536;SDS011;14204;51.262;5.488;2022-10-31T00:38:43;22.05;;;12.25;;
26536;SDS011;14204;51.262;5.488;2022-10-31T00:41:09;21.95;;;11.52;;
26536;SDS011;14204;51.262;5.488;2022-10-31T00:43:35;23.63;;;12.02;;
26536;SDS011;14204;51.262;5.488;2022-10-31T00:46:01;28.33;;;12.55;;
26536;SDS011;14204;51.262;5.488;2022-10-31T00:48:28;22.75;;;13.30;;
26536;SDS011;14204;51.262;5.488;2022-10-31T00:50:54;19.98;;;11.65;;
26536;SDS011;14204;51.262;5.488;2022-10-31T00:53:19;18.13;;;11.15;;
26536;SDS011;14204;51.262;5.488;2022-10-31T00:55:46;24.80;;;12.23;;
26536;SDS011;14204;51.262;5.488;2022-10-31T00:58:11;21.75;;;11.32;;
26536;SDS011;14204;51.262;5.488;2022-10-31T01:00:37;16.38;;;11.35;;
26536;SDS011;14204;51.262;5.488;2022-10-31T01:03:03;22.30;;;12.05;;
26536;SDS011;14204;51.262;5.488;2022-10-31T01:05:29;17.40;;;10.02;;
26536;SDS011;14204;51.262;5.488;2022-10-31T01:07:54;25.98;;;11.70;;
26536;SDS011;14204;51.262;5.488;2022-10-31T01:10:20;20.45;;;10.60;;
26536;SDS011;14204;51.262;5.488;2022-10-31T01:12:47;23.67;;;11.05;;
26536;SDS011;14204;51.262;5.488;2022-10-31T01:15:15;18.42;;;10.10;;
26536;SDS011;14204;51.262;5.488;2022-10-31T01:17:42;20.58;;;9.73;;
26536;SDS011;14204;51.262;5.488;2022-10-31T01:20:08;19.85;;;11.18;;
26536;SDS011;14204;51.262;5.488;2022-10-31T01:22:35;21.50;;;11.13;;
26536;SDS011;14204;51.262;5.488;2022-10-31T01:25:01;22.77;;;11.10;;
26536;SDS011;14204;51.262;5.488;2022-10-31T01:27:27;19.55;;;10.25;;
26536;SDS011;14204;51.262;5.488;2022-10-31T01:29:52;18.02;;;9.73;;
26536;SDS011;14204;51.262;5.488;2022-10-31T01:32:18;21.75;;;10.70;;
26536;SDS011;14204;51.262;5.488;2022-10-31T01:34:43;15.50;;;9.00;;
26536;SDS011;14204;51.262;5.488;2022-10-31T01:37:09;19.23;;;9.68;;
26536;SDS011;14204;51.262;5.488;2022-10-31T01:39:35;16.55;;;10.02;;
26536;SDS011;14204;51.262;5.488;2022-10-31T01:42:00;18.23;;;9.48;;
26536;SDS011;14204;51.262;5.488;2022-10-31T01:46:53;19.42;;;11.07;;
26536;SDS011;14204;51.262;5.488;2022-10-31T01:49:56;16.02;;;10.00;;
26536;SDS011;14204;51.262;5.488;2022-10-31T01:55:29;27.77;;;9.98;;
26536;SDS011;14204;51.262;5.488;2022-10-31T01:57:47;15.90;;;9.75;;
26536;SDS011;14204;51.262;5.488;2022-10-31T02:00:16;20.80;;;10.23;;
26536;SDS011;14204;51.262;5.488;2022-10-31T02:02:42;19.40;;;11.32;;
26536;SDS011;14204;51.262;5.488;2022-10-31T02:05:10;15.82;;;10.75;;
26536;SDS011;14204;51.262;5.488;2022-10-31T02:07:41;17.85;;;10.60;;
26536;SDS011;14204;51.262;5.488;2022-10-31T02:10:13;16.90;;;10.18;;
26536;SDS011;14204;51.262;5.488;2022-10-31T02:12:38;18.35;;;9.63;;
26536;SDS011;14204;51.262;5.488;2022-10-31T02:15:05;25.27;;;10.45;;
26536;SDS011;14204;51.262;5.488;2022-10-31T02:17:32;22.42;;;10.57;;
26536;SDS011;14204;51.262;5.488;2022-10-31T02:36:22;24.50;;;11.18;;
26536;SDS011;14204;51.262;5.488;2022-10-31T02:39:02;20.08;;;13.05;;
26536;SDS011;14204;51.262;5.488;2022-10-31T02:41:43;26.73;;;12.73;;
26536;SDS011;14204;51.262;5.488;2022-10-31T02:44:28;18.63;;;12.45;;
26536;SDS011;14204;51.262;5.488;2022-10-31T02:47:16;22.40;;;12.93;;
26536;SDS011;14204;51.262;5.488;2022-10-31T02:49:57;26.05;;;13.65;;
26536;SDS011;14204;51.262;5.488;2022-10-31T02:52:28;24.90;;;13.55;;
26536;SDS011;14204;51.262;5.488;2022-10-31T02:54:55;29.83;;;12.65;;
26536;SDS011;14204;51.262;5.488;2022-10-31T02:57:28;26.73;;;14.77;;
26536;SDS011;14204;51.262;5.488;2022-10-31T03:00:02;24.33;;;14.55;;
26536;SDS011;14204;51.262;5.488;2022-10-31T03:07:53;24.10;;;13.38;;
26536;SDS011;14204;51.262;5.488;2022-10-31T03:13:14;22.05;;;12.32;;
26536;SDS011;14204;51.262;5.488;2022-10-31T03:16:23;25.48;;;13.77;;
26536;SDS011;14204;51.262;5.488;2022-10-31T03:19:06;21.90;;;14.05;;
26536;SDS011;14204;51.262;5.488;2022-10-31T03:21:45;34.05;;;14.00;;
26536;SDS011;14204;51.262;5.488;2022-10-31T03:24:15;26.95;;;14.45;;
26536;SDS011;14204;51.262;5.488;2022-10-31T03:26:42;30.42;;;14.85;;
26536;SDS011;14204;51.262;5.488;2022-10-31T03:29:15;28.73;;;15.30;;
26536;SDS011;14204;51.262;5.488;2022-10-31T03:34:34;28.80;;;16.20;;
26536;SDS011;14204;51.262;5.488;2022-10-31T03:37:03;32.58;;;17.02;;
26536;SDS011;14204;51.262;5.488;2022-10-31T03:39:31;33.22;;;17.63;;
26536;SDS011;14204;51.262;5.488;2022-10-31T03:42:06;33.60;;;20.15;;
26536;SDS011;14204;51.262;5.488;2022-10-31T03:44:35;34.47;;;18.48;;
26536;SDS011;14204;51.262;5.488;2022-10-31T03:47:04;27.48;;;16.10;;
26536;SDS011;14204;51.262;5.488;2022-10-31T03:49:30;28.42;;;18.80;;
26536;SDS011;14204;51.262;5.488;2022-10-31T03:51:59;32.45;;;19.10;;
26536;SDS011;14204;51.262;5.488;2022-10-31T03:54:40;34.67;;;17.65;;
26536;SDS011;14204;51.262;5.488;2022-10-31T03:57:21;26.33;;;16.63;;
26536;SDS011;14204;51.262;5.488;2022-10-31T04:02:57;28.33;;;16.42;;
26536;SDS011;14204;51.262;5.488;2022-10-31T04:05:28;31.52;;;17.20;;
26536;SDS011;14204;51.262;5.488;2022-10-31T04:07:55;34.65;;;18.20;;
26536;SDS011;14204;51.262;5.488;2022-10-31T04:10:22;29.92;;;16.80;;
26536;SDS011;14204;51.262;5.488;2022-10-31T04:12:56;38.30;;;19.17;;
26536;SDS011;14204;51.262;5.488;2022-10-31T04:15:26;29.75;;;17.50;;
26536;SDS011;14204;51.262;5.488;2022-10-31T04:17:53;31.35;;;16.58;;
26536;SDS011;14204;51.262;5.488;2022-10-31T04:20:32;30.10;;;17.00;;
26536;SDS011;14204;51.262;5.488;2022-10-31T04:22:59;28.15;;;16.75;;
26536;SDS011;14204;51.262;5.488;2022-10-31T04:25:25;30.45;;;17.75;;
26536;SDS011;14204;51.262;5.488;2022-10-31T04:27:51;36.03;;;18.30;;
26536;SDS011;14204;51.262;5.488;2022-10-31T04:30:17;30.80;;;17.77;;
26536;SDS011;14204;51.262;5.488;2022-10-31T04:32:42;42.42;;;17.27;;
26536;SDS011;14204;51.262;5.488;2022-10-31T04:35:08;35.55;;;18.92;;
26536;SDS011;14204;51.262;5.488;2022-10-31T04:37:33;38.90;;;17.90;;
26536;SDS011;14204;51.262;5.488;2022-10-31T04:39:59;30.15;;;15.70;;
26536;SDS011;14204;51.262;5.488;2022-10-31T04:42:25;36.47;;;16.63;;
26536;SDS011;14204;51.262;5.488;2022-10-31T04:44:53;28.00;;;17.00;;
26536;SDS011;14204;51.262;5.488;2022-10-31T04:47:19;35.05;;;20.15;;
26536;SDS011;14204;51.262;5.488;2022-10-31T04:49:44;28.20;;;16.95;;
26536;SDS011;14204;51.262;5.488;2022-10-31T04:52:10;33.08;;;18.48;;
26536;SDS011;14204;51.262;5.488;2022-10-31T04:54:35;32.45;;;18.67;;
26536;SDS011;14204;51.262;5.488;2022-10-31T04:57:01;31.00;;;16.35;;
26536;SDS011;14204;51.262;5.488;2022-10-31T04:59:26;34.78;;;16.60;;
26536;SDS011;14204;51.262;5.488;2022-10-31T05:01:52;44.97;;;19.80;;
26536;SDS011;14204;51.262;5.488;2022-10-31T05:04:18;34.45;;;19.38;;
26536;SDS011;14204;51.262;5.488;2022-10-31T05:06:43;34.42;;;18.20;;
26536;SDS011;14204;51.262;5.488;2022-10-31T05:09:09;36.72;;;17.08;;
26536;SDS011;14204;51.262;5.488;2022-10-31T05:11:34;27.25;;;16.17;;
26536;SDS011;14204;51.262;5.488;2022-10-31T05:14:00;30.48;;;15.00;;
26536;SDS011;14204;51.262;5.488;2022-10-31T05:16:25;30.80;;;16.42;;
26536;SDS011;14204;51.262;5.488;2022-10-31T05:18:51;27.88;;;17.00;;
26536;SDS011;14204;51.262;5.488;2022-10-31T05:21:17;30.67;;;16.23;;
26536;SDS011;14204;51.262;5.488;2022-10-31T05:23:42;29.23;;;16.08;;
26536;SDS011;14204;51.262;5.488;2022-10-31T05:26:08;29.85;;;18.25;;
26536;SDS011;14204;51.262;5.488;2022-10-31T05:28:33;34.13;;;20.23;;
26536;SDS011;14204;51.262;5.488;2022-10-31T05:30:59;39.10;;;21.05;;
26536;SDS011;14204;51.262;5.488;2022-10-31T05:33:24;38.83;;;22.63;;
26536;SDS011;14204;51.262;5.488;2022-10-31T05:35:50;39.00;;;21.58;;
26536;SDS011;14204;51.262;5.488;2022-10-31T05:38:16;40.20;;;22.73;;
26536;SDS011;14204;51.262;5.488;2022-10-31T05:40:41;33.45;;;21.52;;
26536;SDS011;14204;51.262;5.488;2022-10-31T05:43:07;33.00;;;19.30;;
26536;SDS011;14204;51.262;5.488;2022-10-31T05:45:33;20.23;;;13.00;;
26536;SDS011;14204;51.262;5.488;2022-10-31T05:47:59;20.48;;;10.23;;
26536;SDS011;14204;51.262;5.488;2022-10-31T05:50:26;15.35;;;10.15;;
26536;SDS011;14204;51.262;5.488;2022-10-31T05:52:54;18.00;;;11.63;;
26536;SDS011;14204;51.262;5.488;2022-10-31T05:55:21;25.33;;;14.45;;
26536;SDS011;14204;51.262;5.488;2022-10-31T05:57:46;24.13;;;15.60;;
26536;SDS011;14204;51.262;5.488;2022-10-31T06:00:12;28.15;;;15.02;;
26536;SDS011;14204;51.262;5.488;2022-10-31T06:02:37;30.98;;;18.25;;
26536;SDS011;14204;51.262;5.488;2022-10-31T06:05:03;36.25;;;17.33;;
26536;SDS011;14204;51.262;5.488;2022-10-31T06:07:33;33.55;;;19.65;;
26536;SDS011;14204;51.262;5.488;2022-10-31T06:09:59;51.85;;;25.98;;
26536;SDS011;14204;51.262;5.488;2022-10-31T06:12:25;35.03;;;19.90;;
26536;SDS011;14204;51.262;5.488;2022-10-31T06:14:51;35.33;;;19.92;;
26536;SDS011;14204;51.262;5.488;2022-10-31T06:17:17;41.40;;;21.90;;
26536;SDS011;14204;51.262;5.488;2022-10-31T06:19:42;39.53;;;20.40;;
26536;SDS011;14204;51.262;5.488;2022-10-31T06:22:08;43.67;;;21.65;;
26536;SDS011;14204;51.262;5.488;2022-10-31T06:24:36;47.45;;;24.98;;
26536;SDS011;14204;51.262;5.488;2022-10-31T06:27:01;34.95;;;20.98;;
26536;SDS011;14204;51.262;5.488;2022-10-31T06:29:27;23.17;;;15.10;;
26536;SDS011;14204;51.262;5.488;2022-10-31T06:31:52;37.67;;;20.45;;
26536;SDS011;14204;51.262;5.488;2022-10-31T06:34:18;38.55;;;21.70;;
26536;SDS011;14204;51.262;5.488;2022-10-31T06:36:45;37.97;;;22.10;;
26536;SDS011;14204;51.262;5.488;2022-10-31T06:39:11;37.05;;;20.65;;
26536;SDS011;14204;51.262;5.488;2022-10-31T06:41:37;28.98;;;17.25;;
26536;SDS011;14204;51.262;5.488;2022-10-31T06:44:04;32.80;;;17.88;;
26536;SDS011;14204;51.262;5.488;2022-10-31T06:46:31;30.55;;;17.38;;
26536;SDS011;14204;51.262;5.488;2022-10-31T06:48:56;32.97;;;17.00;;
26536;SDS011;14204;51.262;5.488;2022-10-31T06:51:22;35.45;;;16.45;;
26536;SDS011;14204;51.262;5.488;2022-10-31T06:53:48;27.58;;;14.88;;
26536;SDS011;14204;51.262;5.488;2022-10-31T06:56:13;31.73;;;16.17;;
26536;SDS011;14204;51.262;5.488;2022-10-31T06:58:39;29.48;;;17.48;;
26536;SDS011;14204;51.262;5.488;2022-10-31T07:01:05;27.30;;;18.70;;
26536;SDS011;14204;51.262;5.488;2022-10-31T07:03:30;33.55;;;21.17;;
26536;SDS011;14204;51.262;5.488;2022-10-31T07:05:56;33.85;;;18.20;;
26536;SDS011;14204;51.262;5.488;2022-10-31T07:08:22;28.58;;;16.55;;
26536;SDS011;14204;51.262;5.488;2022-10-31T07:10:52;37.05;;;19.83;;
26536;SDS011;14204;51.262;5.488;2022-10-31T07:13:19;42.53;;;20.65;;
26536;SDS011;14204;51.262;5.488;2022-10-31T07:15:49;36.40;;;20.75;;
26536;SDS011;14204;51.262;5.488;2022-10-31T07:18:16;38.45;;;19.63;;
26536;SDS011;14204;51.262;5.488;2022-10-31T07:20:41;39.40;;;19.90;;
26536;SDS011;14204;51.262;5.488;2022-10-31T07:23:07;50.47;;;24.85;;
26536;SDS011;14204;51.262;5.488;2022-10-31T07:25:34;47.03;;;22.42;;
26536;SDS011;14204;51.262;5.488;2022-10-31T07:28:00;48.90;;;25.73;;
26536;SDS011;14204;51.262;5.488;2022-10-31T07:30:26;74.18;;;27.85;;
26536;SDS011;14204;51.262;5.488;2022-10-31T07:32:51;39.65;;;22.35;;
26536;SDS011;14204;51.262;5.488;2022-10-31T07:35:18;47.78;;;24.30;;
26536;SDS011;14204;51.262;5.488;2022-10-31T07:37:51;42.17;;;20.13;;
26536;SDS011;14204;51.262;5.488;2022-10-31T07:40:18;44.45;;;20.55;;
26536;SDS011;14204;51.262;5.488;2022-10-31T07:42:45;38.90;;;20.77;;
26536;SDS011;14204;51.262;5.488;2022-10-31T07:45:13;31.98;;;18.52;;
26536;SDS011;14204;51.262;5.488;2022-10-31T07:47:44;37.20;;;20.48;;
26536;SDS011;14204;51.262;5.488;2022-10-31T07:50:14;31.13;;;19.17;;
26536;SDS011;14204;51.262;5.488;2022-10-31T07:52:42;37.65;;;21.25;;
26536;SDS011;14204;51.262;5.488;2022-10-31T07:55:07;32.63;;;20.27;;
26536;SDS011;14204;51.262;5.488;2022-10-31T07:57:34;40.85;;;23.60;;
26536;SDS011;14204;51.262;5.488;2022-10-31T08:00:02;35.03;;;20.23;;
26536;SDS011;14204;51.262;5.488;2022-10-31T08:02:28;35.25;;;20.27;;
26536;SDS011;14204;51.262;5.488;2022-10-31T08:04:54;37.03;;;19.70;;
26536;SDS011;14204;51.262;5.488;2022-10-31T08:07:20;33.45;;;17.55;;
26536;SDS011;14204;51.262;5.488;2022-10-31T08:09:45;45.55;;;21.58;;
26536;SDS011;14204;51.262;5.488;2022-10-31T08:12:11;42.00;;;20.45;;
26536;SDS011;14204;51.262;5.488;2022-10-31T08:14:36;38.58;;;19.98;;
26536;SDS011;14204;51.262;5.488;2022-10-31T08:17:02;36.30;;;18.00;;
26536;SDS011;14204;51.262;5.488;2022-10-31T08:19:27;29.70;;;18.17;;
26536;SDS011;14204;51.262;5.488;2022-10-31T08:21:53;37.28;;;20.58;;
26536;SDS011;14204;51.262;5.488;2022-10-31T08:24:20;31.25;;;19.15;;
26536;SDS011;14204;51.262;5.488;2022-10-31T08:26:46;31.33;;;18.77;;
26536;SDS011;14204;51.262;5.488;2022-10-31T08:29:12;36.42;;;20.33;;
26536;SDS011;14204;51.262;5.488;2022-10-31T08:31:39;38.10;;;22.48;;
26536;SDS011;14204;51.262;5.488;2022-10-31T08:34:05;43.50;;;22.63;;
26536;SDS011;14204;51.262;5.488;2022-10-31T08:36:30;30.77;;;17.50;;
26536;SDS011;14204;51.262;5.488;2022-10-31T08:38:56;33.22;;;18.98;;
26536;SDS011;14204;51.262;5.488;2022-10-31T08:41:22;28.42;;;17.83;;
26536;SDS011;14204;51.262;5.488;2022-10-31T08:43:47;30.10;;;18.38;;
26536;SDS011;14204;51.262;5.488;2022-10-31T08:46:13;28.23;;;18.98;;
26536;SDS011;14204;51.262;5.488;2022-10-31T08:48:39;29.75;;;19.85;;
26536;SDS011;14204;51.262;5.488;2022-10-31T08:51:04;29.25;;;20.80;;
26536;SDS011;14204;51.262;5.488;2022-10-31T08:53:30;28.05;;;19.23;;
26536;SDS011;14204;51.262;5.488;2022-10-31T08:55:56;29.17;;;19.35;;
26536;SDS011;14204;51.262;5.488;2022-10-31T08:58:22;30.20;;;21.17;;
26536;SDS011;14204;51.262;5.488;2022-10-31T09:00:53;37.25;;;25.00;;
26536;SDS011;14204;51.262;5.488;2022-10-31T09:03:22;38.22;;;25.95;;
26536;SDS011;14204;51.262;5.488;2022-10-31T09:05:49;48.80;;;29.48;;
26536;SDS011;14204;51.262;5.488;2022-10-31T09:08:15;41.80;;;27.73;;
26536;SDS011;14204;51.262;5.488;2022-10-31T09:10:42;46.88;;;27.02;;
26536;SDS011;14204;51.262;5.488;2022-10-31T09:13:18;38.15;;;24.50;;
26536;SDS011;14204;51.262;5.488;2022-10-31T09:15:47;47.13;;;27.60;;
26536;SDS011;14204;51.262;5.488;2022-10-31T09:18:14;48.28;;;29.40;;
26536;SDS011;14204;51.262;5.488;2022-10-31T09:20:41;50.03;;;30.90;;
26536;SDS011;14204;51.262;5.488;2022-10-31T09:23:09;57.45;;;32.10;;
26536;SDS011;14204;51.262;5.488;2022-10-31T09:25:40;65.75;;;35.85;;
26536;SDS011;14204;51.262;5.488;2022-10-31T09:28:06;63.58;;;37.53;;
26536;SDS011;14204;51.262;5.488;2022-10-31T09:30:34;63.65;;;37.40;;
26536;SDS011;14204;51.262;5.488;2022-10-31T09:33:01;56.65;;;33.58;;
26536;SDS011;14204;51.262;5.488;2022-10-31T09:35:29;53.72;;;31.02;;
26536;SDS011;14204;51.262;5.488;2022-10-31T09:38:00;59.30;;;31.95;;
26536;SDS011;14204;51.262;5.488;2022-10-31T09:40:38;66.32;;;34.85;;
26536;SDS011;14204;51.262;5.488;2022-10-31T09:51:06;60.50;;;31.23;;
26536;SDS011;14204;51.262;5.488;2022-10-31T09:56:13;62.20;;;35.88;;
26536;SDS011;14204;51.262;5.488;2022-10-31T09:58:45;66.40;;;37.92;;
26536;SDS011;14204;51.262;5.488;2022-10-31T10:06:46;70.78;;;34.78;;
26536;SDS011;14204;51.262;5.488;2022-10-31T10:09:14;74.78;;;37.30;;
26536;SDS011;14204;51.262;5.488;2022-10-31T10:17:10;85.18;;;41.10;;
26536;SDS011;14204;51.262;5.488;2022-10-31T10:30:14;86.65;;;42.63;;
26536;SDS011;14204;51.262;5.488;2022-10-31T10:32:52;69.22;;;37.53;;
26536;SDS011;14204;51.262;5.488;2022-10-31T10:35:28;84.78;;;42.38;;
26536;SDS011;14204;51.262;5.488;2022-10-31T10:38:13;83.60;;;42.05;;
26536;SDS011;14204;51.262;5.488;2022-10-31T10:40:59;84.07;;;42.33;;
26536;SDS011;14204;51.262;5.488;2022-10-31T10:51:25;79.45;;;40.65;;
26536;SDS011;14204;51.262;5.488;2022-10-31T10:59:43;77.25;;;40.50;;
26536;SDS011;14204;51.262;5.488;2022-10-31T11:02:17;79.75;;;42.55;;
26536;SDS011;14204;51.262;5.488;2022-10-31T11:04:47;80.35;;;41.45;;
26536;SDS011;14204;51.262;5.488;2022-10-31T11:07:19;78.03;;;43.15;;
26536;SDS011;14204;51.262;5.488;2022-10-31T11:09:45;74.30;;;40.15;;
26536;SDS011;14204;51.262;5.488;2022-10-31T11:12:29;84.25;;;41.83;;
26536;SDS011;14204;51.262;5.488;2022-10-31T11:15:00;77.75;;;41.40;;
26536;SDS011;14204;51.262;5.488;2022-10-31T11:17:33;74.65;;;39.25;;
26536;SDS011;14204;51.262;5.488;2022-10-31T11:22:40;76.47;;;39.90;;
26536;SDS011;14204;51.262;5.488;2022-10-31T11:28:03;75.40;;;37.55;;
26536;SDS011;14204;51.262;5.488;2022-10-31T11:30:37;70.18;;;36.97;;
26536;SDS011;14204;51.262;5.488;2022-10-31T11:33:20;70.63;;;37.47;;
26536;SDS011;14204;51.262;5.488;2022-10-31T11:35:53;64.03;;;34.58;;
26536;SDS011;14204;51.262;5.488;2022-10-31T11:38:20;57.28;;;31.85;;
26536;SDS011;14204;51.262;5.488;2022-10-31T11:40:52;61.33;;;32.92;;
26536;SDS011;14204;51.262;5.488;2022-10-31T11:43:19;62.63;;;33.60;;
26536;SDS011;14204;51.262;5.488;2022-10-31T11:45:44;66.43;;;31.70;;
26536;SDS011;14204;51.262;5.488;2022-10-31T11:48:20;59.53;;;34.13;;
26536;SDS011;14204;51.262;5.488;2022-10-31T11:50:50;58.63;;;29.33;;
26536;SDS011;14204;51.262;5.488;2022-10-31T11:53:21;57.80;;;31.10;;
26536;SDS011;14204;51.262;5.488;2022-10-31T11:56:01;52.85;;;27.23;;
26536;SDS011;14204;51.262;5.488;2022-10-31T11:58:30;47.03;;;25.23;;
26536;SDS011;14204;51.262;5.488;2022-10-31T12:00:56;54.22;;;26.92;;
26536;SDS011;14204;51.262;5.488;2022-10-31T12:05:53;44.65;;;25.83;;
26536;SDS011;14204;51.262;5.488;2022-10-31T12:08:44;49.78;;;28.27;;
26536;SDS011;14204;51.262;5.488;2022-10-31T12:13:51;51.63;;;25.33;;
26536;SDS011;14204;51.262;5.488;2022-10-31T12:16:28;43.17;;;24.70;;
26536;SDS011;14204;51.262;5.488;2022-10-31T12:19:20;43.10;;;25.55;;
26536;SDS011;14204;51.262;5.488;2022-10-31T12:21:57;42.83;;;25.33;;
26536;SDS011;14204;51.262;5.488;2022-10-31T12:30:46;45.85;;;23.35;;
26536;SDS011;14204;51.262;5.488;2022-10-31T12:33:21;40.53;;;21.48;;
26536;SDS011;14204;51.262;5.488;2022-10-31T12:38:50;55.28;;;26.58;;
26536;SDS011;14204;51.262;5.488;2022-10-31T12:41:25;54.13;;;29.10;;
26536;SDS011;14204;51.262;5.488;2022-10-31T12:57:23;42.88;;;19.20;;
26536;SDS011;14204;51.262;5.488;2022-10-31T13:02:33;36.10;;;17.70;;
26536;SDS011;14204;51.262;5.488;2022-10-31T13:08:17;35.72;;;17.13;;
26536;SDS011;14204;51.262;5.488;2022-10-31T13:11:09;32.45;;;16.65;;
26536;SDS011;14204;51.262;5.488;2022-10-31T13:13:54;34.70;;;17.35;;
26536;SDS011;14204;51.262;5.488;2022-10-31T13:16:34;34.80;;;15.93;;
26536;SDS011;14204;51.262;5.488;2022-10-31T13:24:32;35.40;;;15.85;;
26536;SDS011;14204;51.262;5.488;2022-10-31T13:27:13;34.15;;;15.73;;
26536;SDS011;14204;51.262;5.488;2022-10-31T13:29:47;27.95;;;14.48;;
26536;SDS011;14204;51.262;5.488;2022-10-31T13:32:39;33.17;;;14.23;;
26536;SDS011;14204;51.262;5.488;2022-10-31T13:35:12;34.72;;;14.38;;
26536;SDS011;14204;51.262;5.488;2022-10-31T13:37:59;28.73;;;12.95;;
26536;SDS011;14204;51.262;5.488;2022-10-31T13:40:34;26.60;;;13.18;;
26536;SDS011;14204;51.262;5.488;2022-10-31T13:43:22;23.10;;;12.63;;
26536;SDS011;14204;51.262;5.488;2022-10-31T13:46:21;29.92;;;11.98;;
26536;SDS011;14204;51.262;5.488;2022-10-31T13:49:01;27.42;;;12.10;;
26536;SDS011;14204;51.262;5.488;2022-10-31T13:51:29;23.02;;;12.13;;
26536;SDS011;14204;51.262;5.488;2022-10-31T13:54:06;22.25;;;11.60;;
26536;SDS011;14204;51.262;5.488;2022-10-31T13:56:48;27.02;;;12.07;;
26536;SDS011;14204;51.262;5.488;2022-10-31T13:59:16;27.83;;;13.00;;
26536;SDS011;14204;51.262;5.488;2022-10-31T14:01:51;24.10;;;12.30;;
26536;SDS011;14204;51.262;5.488;2022-10-31T14:07:06;32.53;;;14.18;;
26536;SDS011;14204;51.262;5.488;2022-10-31T14:09:38;27.60;;;12.35;;
26536;SDS011;14204;51.262;5.488;2022-10-31T14:12:29;24.65;;;12.93;;
26536;SDS011;14204;51.262;5.488;2022-10-31T14:22:43;27.85;;;13.80;;
26536;SDS011;14204;51.262;5.488;2022-10-31T14:27:56;26.92;;;13.40;;
26536;SDS011;14204;51.262;5.488;2022-10-31T14:30:23;28.17;;;13.45;;
26536;SDS011;14204;51.262;5.488;2022-10-31T14:33:18;26.02;;;12.82;;
26536;SDS011;14204;51.262;5.488;2022-10-31T14:35:53;30.77;;;13.00;;
26536;SDS011;14204;51.262;5.488;2022-10-31T14:52:04;23.75;;;12.02;;
26536;SDS011;14204;51.262;5.488;2022-10-31T14:54:36;21.23;;;10.27;;
26536;SDS011;14204;51.262;5.488;2022-10-31T14:57:28;28.60;;;11.65;;
26536;SDS011;14204;51.262;5.488;2022-10-31T15:00:01;25.90;;;11.63;;
26536;SDS011;14204;51.262;5.488;2022-10-31T15:02:54;24.80;;;11.88;;
26536;SDS011;14204;51.262;5.488;2022-10-31T15:05:21;28.05;;;12.70;;
26536;SDS011;14204;51.262;5.488;2022-10-31T15:07:54;24.65;;;11.98;;
26536;SDS011;14204;51.262;5.488;2022-10-31T15:10:26;27.63;;;12.15;;
26536;SDS011;14204;51.262;5.488;2022-10-31T15:13:08;29.92;;;13.18;;
26536;SDS011;14204;51.262;5.488;2022-10-31T15:15:35;25.83;;;10.27;;
26536;SDS011;14204;51.262;5.488;2022-10-31T15:18:03;18.25;;;10.02;;
26536;SDS011;14204;51.262;5.488;2022-10-31T15:20:41;23.35;;;11.23;;
26536;SDS011;14204;51.262;5.488;2022-10-31T15:23:10;25.30;;;12.23;;
26536;SDS011;14204;51.262;5.488;2022-10-31T15:28:21;22.27;;;9.98;;
26536;SDS011;14204;51.262;5.488;2022-10-31T15:30:52;26.00;;;11.38;;
26536;SDS011;14204;51.262;5.488;2022-10-31T15:33:21;20.95;;;10.32;;
26536;SDS011;14204;51.262;5.488;2022-10-31T15:35:55;20.23;;;9.65;;
26536;SDS011;14204;51.262;5.488;2022-10-31T15:38:25;22.80;;;8.88;;
26536;SDS011;14204;51.262;5.488;2022-10-31T15:40:53;17.38;;;8.90;;
26536;SDS011;14204;51.262;5.488;2022-10-31T15:43:35;21.95;;;9.82;;
26536;SDS011;14204;51.262;5.488;2022-10-31T15:46:03;19.73;;;9.18;;
26536;SDS011;14204;51.262;5.488;2022-10-31T15:48:33;18.75;;;8.82;;
26536;SDS011;14204;51.262;5.488;2022-10-31T15:51:00;19.92;;;8.32;;
26536;SDS011;14204;51.262;5.488;2022-10-31T15:55:57;17.95;;;7.78;;
26536;SDS011;14204;51.262;5.488;2022-10-31T15:58:25;16.55;;;8.32;;
26536;SDS011;14204;51.262;5.488;2022-10-31T16:01:18;15.18;;;8.63;;
26536;SDS011;14204;51.262;5.488;2022-10-31T16:03:59;18.58;;;8.88;;
26536;SDS011;14204;51.262;5.488;2022-10-31T16:06:26;19.80;;;7.95;;
26536;SDS011;14204;51.262;5.488;2022-10-31T16:08:52;18.13;;;7.88;;
26536;SDS011;14204;51.262;5.488;2022-10-31T16:11:22;14.30;;;7.35;;
26536;SDS011;14204;51.262;5.488;2022-10-31T16:14:04;18.77;;;8.30;;
26536;SDS011;14204;51.262;5.488;2022-10-31T16:16:33;18.13;;;7.93;;
26536;SDS011;14204;51.262;5.488;2022-10-31T16:19:11;22.70;;;7.72;;
26536;SDS011;14204;51.262;5.488;2022-10-31T16:21:47;14.23;;;7.18;;
26536;SDS011;14204;51.262;5.488;2022-10-31T16:27:01;19.52;;;7.30;;
26536;SDS011;14204;51.262;5.488;2022-10-31T16:29:33;16.60;;;7.50;;
26536;SDS011;14204;51.262;5.488;2022-10-31T16:32:52;16.33;;;7.10;;
26536;SDS011;14204;51.262;5.488;2022-10-31T16:37:36;13.10;;;6.78;;
26536;SDS011;14204;51.262;5.488;2022-10-31T16:40:03;14.68;;;6.95;;
26536;SDS011;14204;51.262;5.488;2022-10-31T16:42:29;16.73;;;8.90;;
26536;SDS011;14204;51.262;5.488;2022-10-31T16:44:54;17.45;;;7.43;;
26536;SDS011;14204;51.262;5.488;2022-10-31T16:47:20;15.93;;;7.43;;
26536;SDS011;14204;51.262;5.488;2022-10-31T16:49:47;18.33;;;7.57;;
26536;SDS011;14204;51.262;5.488;2022-10-31T16:52:14;13.90;;;6.15;;
26536;SDS011;14204;51.262;5.488;2022-10-31T16:54:43;20.38;;;6.35;;
26536;SDS011;14204;51.262;5.488;2022-10-31T16:57:16;14.63;;;6.80;;
26536;SDS011;14204;51.262;5.488;2022-10-31T16:59:46;15.25;;;6.43;;
26536;SDS011;14204;51.262;5.488;2022-10-31T17:02:16;20.10;;;6.90;;
26536;SDS011;14204;51.262;5.488;2022-10-31T17:04:42;22.80;;;7.97;;
26536;SDS011;14204;51.262;5.488;2022-10-31T17:07:07;16.77;;;7.13;;
26536;SDS011;14204;51.262;5.488;2022-10-31T17:09:33;18.83;;;7.28;;
26536;SDS011;14204;51.262;5.488;2022-10-31T17:11:58;15.50;;;7.70;;
26536;SDS011;14204;51.262;5.488;2022-10-31T17:14:24;13.77;;;6.63;;
26536;SDS011;14204;51.262;5.488;2022-10-31T17:16:50;16.25;;;8.68;;
26536;SDS011;14204;51.262;5.488;2022-10-31T17:19:16;21.85;;;8.38;;
26536;SDS011;14204;51.262;5.488;2022-10-31T17:21:41;17.63;;;7.95;;
26536;SDS011;14204;51.262;5.488;2022-10-31T17:24:09;17.92;;;7.70;;